Time,TemperatureF,DewpointF,PressureIn,WindDirection,WindDirectionDegrees,WindSpeedMPH,WindSpeedGustMPH,Humidity,HourlyPrecipIn,Conditions,Clouds,dailyrainin,SoftwareType,DateUTC
2013-04-20 00:01:00,56.1,54.1,29.75,ESE,112,12.9,20.3,93,0.08,,,0.08,VWS V13.00,2013-04-20 04:01:00,
2013-04-20 00:02:00,56.1,54.1,29.75,SE,135,14.5,20.3,93,0.08,,,0.02,VWS V13.00,2013-04-20 04:02:00,
2013-04-20 00:07:00,56.1,54.1,29.76,South,180,20.1,20.3,93,0.04,,,0.00,VWS V13.00,2013-04-20 04:07:00,
2013-04-20 00:12:00,55.9,53.9,29.76,South,180,19.6,20.3,93,0.04,,,0.00,VWS V13.00,2013-04-20 04:12:00,
2013-04-20 00:17:00,55.5,53.5,29.76,SSE,158,9.1,20.3,93,0.04,,,0.00,VWS V13.00,2013-04-20 04:17:00,
2013-04-20 00:22:00,55.5,53.5,29.75,SSE,158,18.3,18.3,93,0.02,,,0.00,VWS V13.00,2013-04-20 04:22:00,
2013-04-20 00:27:00,55.7,53.7,29.75,South,180,15.2,20.3,93,0.04,,,0.02,VWS V13.00,2013-04-20 04:27:00,
2013-04-20 00:32:00,55.9,53.9,29.75,SE,135,21.0,21.0,93,0.04,,,0.02,VWS V13.00,2013-04-20 04:32:00,
2013-04-20 00:37:00,55.9,53.9,29.75,SE,135,15.6,21.0,93,0.04,,,0.02,VWS V13.00,2013-04-20 04:37:00,
2013-04-20 00:42:00,56.1,54.1,29.75,SSE,158,18.1,21.0,93,0.02,,,0.02,VWS V13.00,2013-04-20 04:42:00,
2013-04-20 00:47:00,56.4,54.4,29.75,SSE,158,19.6,21.0,93,0.02,,,0.02,VWS V13.00,2013-04-20 04:47:00,
2013-04-20 00:52:00,57.0,55.3,29.74,SSE,158,13.8,21.0,94,0.02,,,0.02,VWS V13.00,2013-04-20 04:52:00,
2013-04-20 00:57:00,57.3,55.6,29.74,South,180,18.1,21.0,94,0.02,,,0.02,VWS V13.00,2013-04-20 04:57:00,
2013-04-20 01:02:00,57.3,55.6,29.73,South,180,14.9,14.9,94,0.02,,,0.02,VWS V13.00,2013-04-20 05:02:00,
2013-04-20 01:07:00,57.2,55.5,29.73,South,180,14.9,14.9,94,0.02,,,0.02,VWS V13.00,2013-04-20 05:07:00,
2013-04-20 01:12:00,57.0,55.3,29.73,East,90,14.3,15.4,94,0.02,,,0.02,VWS V13.00,2013-04-20 05:12:00,
2013-04-20 01:17:00,57.0,55.3,29.73,South,180,12.3,15.4,94,0.04,,,0.04,VWS V13.00,2013-04-20 05:17:00,
2013-04-20 01:22:00,57.0,55.3,29.73,South,180,21.6,21.6,94,0.04,,,0.04,VWS V13.00,2013-04-20 05:22:00,
2013-04-20 01:27:00,57.2,55.5,29.73,South,180,18.1,21.6,94,0.02,,,0.04,VWS V13.00,2013-04-20 05:27:00,
2013-04-20 01:32:00,57.0,55.3,29.73,South,180,19.6,21.6,94,0.02,,,0.04,VWS V13.00,2013-04-20 05:32:00,
2013-04-20 01:37:00,56.8,55.1,29.73,SSE,158,18.7,21.6,94,0.02,,,0.04,VWS V13.00,2013-04-20 05:37:00,
2013-04-20 01:42:00,56.4,54.7,29.73,South,180,15.6,21.6,94,0.02,,,0.04,VWS V13.00,2013-04-20 05:42:00,
2013-04-20 01:47:00,56.3,54.6,29.73,SE,135,9.6,22.1,94,0.02,,,0.04,VWS V13.00,2013-04-20 05:47:00,
2013-04-20 01:52:00,56.1,54.4,29.73,South,180,9.1,22.1,94,0.02,,,0.04,VWS V13.00,2013-04-20 05:52:00,
2013-04-20 01:57:00,56.1,54.4,29.74,SE,135,10.5,22.1,94,0.02,,,0.04,VWS V13.00,2013-04-20 05:57:00,
2013-04-20 02:02:00,56.1,54.4,29.73,SSE,158,9.6,9.6,94,0.02,,,0.04,VWS V13.00,2013-04-20 06:02:00,
2013-04-20 02:07:00,56.4,54.7,29.74,South,180,14.9,14.9,94,0.02,,,0.04,VWS V13.00,2013-04-20 06:07:00,
2013-04-20 02:12:00,57.3,55.6,29.74,SE,135,7.6,14.9,94,0.02,,,0.04,VWS V13.00,2013-04-20 06:12:00,
2013-04-20 02:17:00,57.7,56.0,29.74,WNW,292,2.0,14.9,94,0.00,,,0.04,VWS V13.00,2013-04-20 06:17:00,
2013-04-20 02:22:00,57.5,55.8,29.75,NNW,338,8.0,17.4,94,0.00,,,0.04,VWS V13.00,2013-04-20 06:22:00,
2013-04-20 02:27:00,56.8,55.1,29.76,North,0,0.0,17.4,94,0.00,,,0.04,VWS V13.00,2013-04-20 06:27:00,
2013-04-20 02:33:00,56.1,54.4,29.76,NW,315,11.6,17.4,94,0.02,,,0.06,VWS V13.00,2013-04-20 06:33:00,
2013-04-20 02:38:00,55.9,54.2,29.76,NNW,338,4.0,17.4,94,0.02,,,0.06,VWS V13.00,2013-04-20 06:38:00,
2013-04-20 02:43:00,55.7,54.0,29.76,NW,315,5.5,7.6,94,0.02,,,0.06,VWS V13.00,2013-04-20 06:43:00,
2013-04-20 02:48:00,55.5,53.8,29.77,NNW,338,4.2,7.6,94,0.02,,,0.06,VWS V13.00,2013-04-20 06:48:00,
2013-04-20 02:53:00,54.8,53.1,29.77,North,0,5.3,8.5,94,0.04,,,0.08,VWS V13.00,2013-04-20 06:53:00,
2013-04-20 02:58:00,54.1,52.4,29.76,NW,315,0.0,9.1,94,0.04,,,0.08,VWS V13.00,2013-04-20 06:58:00,
2013-04-20 03:03:00,53.7,52.0,29.76,NW,315,9.1,9.1,94,0.04,,,0.08,VWS V13.00,2013-04-20 07:03:00,
2013-04-20 03:08:00,53.2,51.5,29.77,NW,315,9.3,10.2,94,0.04,,,0.08,VWS V13.00,2013-04-20 07:08:00,
2013-04-20 03:13:00,52.8,51.1,29.77,NNW,338,9.8,10.2,94,0.04,,,0.08,VWS V13.00,2013-04-20 07:13:00,
2013-04-20 03:18:00,52.8,51.1,29.77,NNE,22,8.5,10.2,94,0.06,,,0.10,VWS V13.00,2013-04-20 07:18:00,
2013-04-20 03:23:00,52.7,51.0,29.77,NW,315,9.1,9.1,94,0.06,,,0.10,VWS V13.00,2013-04-20 07:23:00,
2013-04-20 03:28:00,52.7,51.0,29.77,WNW,292,5.3,9.1,94,0.06,,,0.10,VWS V13.00,2013-04-20 07:28:00,
2013-04-20 03:33:00,52.5,50.8,29.77,NW,315,6.0,9.1,94,0.04,,,0.10,VWS V13.00,2013-04-20 07:33:00,
2013-04-20 03:38:00,52.3,50.6,29.77,NW,315,8.9,15.8,94,0.04,,,0.10,VWS V13.00,2013-04-20 07:38:00,
2013-04-20 03:43:00,52.1,50.1,29.78,NNW,338,10.7,10.7,93,0.04,,,0.10,VWS V13.00,2013-04-20 07:43:00,
2013-04-20 03:48:00,52.1,50.1,29.79,NNW,338,10.2,10.7,93,0.04,,,0.10,VWS V13.00,2013-04-20 07:48:00,
2013-04-20 03:53:00,51.9,49.9,29.79,NW,315,8.2,10.7,93,0.04,,,0.12,VWS V13.00,2013-04-20 07:53:00,
2013-04-20 03:58:00,51.9,49.9,29.79,WNW,292,6.2,10.7,93,0.04,,,0.12,VWS V13.00,2013-04-20 07:58:00,
2013-04-20 04:03:00,51.8,49.8,29.80,NW,315,10.0,10.0,93,0.04,,,0.12,VWS V13.00,2013-04-20 08:03:00,
2013-04-20 04:08:00,51.6,49.7,29.80,SSW,202,4.4,10.7,93,0.04,,,0.12,VWS V13.00,2013-04-20 08:08:00,
2013-04-20 04:13:00,51.6,49.7,29.82,WNW,292,0.0,10.7,93,0.02,,,0.12,VWS V13.00,2013-04-20 08:13:00,
2013-04-20 04:18:00,51.4,49.5,29.82,North,0,0.0,10.7,93,0.04,,,0.14,VWS V13.00,2013-04-20 08:18:00,
2013-04-20 04:23:00,51.0,49.0,29.82,NW,315,4.4,10.5,93,0.06,,,0.16,VWS V13.00,2013-04-20 08:23:00,
2013-04-20 04:28:00,50.9,49.0,29.83,North,0,9.1,10.5,93,0.06,,,0.16,VWS V13.00,2013-04-20 08:28:00,
2013-04-20 04:33:00,50.9,49.0,29.83,NNW,338,7.6,10.5,93,0.06,,,0.16,VWS V13.00,2013-04-20 08:33:00,
2013-04-20 04:38:00,50.7,48.5,29.84,NNW,338,9.6,10.5,92,0.06,,,0.16,VWS V13.00,2013-04-20 08:38:00,
2013-04-20 04:43:00,50.5,48.3,29.84,NW,315,2.2,3.8,92,0.06,,,0.16,VWS V13.00,2013-04-20 08:43:00,
2013-04-20 04:48:00,50.5,48.3,29.85,NE,45,5.8,8.9,92,0.06,,,0.16,VWS V13.00,2013-04-20 08:48:00,
2013-04-20 04:53:00,50.3,48.1,29.85,NNW,338,9.3,9.3,92,0.06,,,0.18,VWS V13.00,2013-04-20 08:53:00,
2013-04-20 04:58:00,50.3,48.1,29.85,NW,315,4.2,14.3,92,0.08,,,0.20,VWS V13.00,2013-04-20 08:58:00,
2013-04-20 05:03:00,50.1,47.9,29.86,NW,315,3.1,3.1,92,0.08,,,0.20,VWS V13.00,2013-04-20 09:03:00,
2013-04-20 05:08:00,50.0,47.5,29.86,NNW,338,4.2,8.7,91,0.08,,,0.20,VWS V13.00,2013-04-20 09:08:00,
2013-04-20 05:13:00,49.8,47.3,29.86,NNW,338,7.3,8.7,91,0.08,,,0.20,VWS V13.00,2013-04-20 09:13:00,
2013-04-20 05:18:00,49.8,47.3,29.88,NNW,338,2.6,8.7,91,0.08,,,0.22,VWS V13.00,2013-04-20 09:18:00,
2013-04-20 05:23:00,49.8,47.3,29.86,NW,315,6.9,11.1,91,0.06,,,0.22,VWS V13.00,2013-04-20 09:23:00,
2013-04-20 05:28:00,49.6,46.8,29.86,NNE,22,4.0,11.1,90,0.08,,,0.24,VWS V13.00,2013-04-20 09:28:00,
2013-04-20 05:33:00,49.6,46.8,29.86,NW,315,6.2,11.1,90,0.08,,,0.24,VWS V13.00,2013-04-20 09:33:00,
2013-04-20 05:38:00,49.2,46.4,29.87,NW,315,6.0,11.1,90,0.08,,,0.24,VWS V13.00,2013-04-20 09:38:00,
2013-04-20 05:43:00,49.2,46.4,29.88,NNW,338,3.5,14.0,90,0.10,,,0.26,VWS V13.00,2013-04-20 09:43:00,
2013-04-20 05:48:00,49.2,46.4,29.88,North,0,11.6,14.0,90,0.10,,,0.26,VWS V13.00,2013-04-20 09:48:00,
2013-04-20 05:53:00,49.2,46.4,29.88,WNW,292,7.3,14.0,90,0.08,,,0.26,VWS V13.00,2013-04-20 09:53:00,
2013-04-20 05:58:00,49.1,46.3,29.89,NW,315,11.4,14.0,90,0.06,,,0.26,VWS V13.00,2013-04-20 09:58:00,
2013-04-20 06:03:00,49.1,46.3,29.89,WNW,292,9.1,14.0,90,0.06,,,0.26,VWS V13.00,2013-04-20 10:03:00,
2013-04-20 06:08:00,49.1,46.3,29.89,NNW,338,6.2,14.0,90,0.08,,,0.28,VWS V13.00,2013-04-20 10:08:00,
2013-04-20 06:13:00,49.1,46.3,29.90,NW,315,4.6,14.0,90,0.08,,,0.28,VWS V13.00,2013-04-20 10:13:00,
2013-04-20 06:18:00,49.2,46.4,29.90,North,0,0.0,14.0,90,0.06,,,0.28,VWS V13.00,2013-04-20 10:18:00,
2013-04-20 06:23:00,49.2,46.4,29.90,NW,315,0.0,9.6,90,0.04,,,0.28,VWS V13.00,2013-04-20 10:23:00,
2013-04-20 06:28:00,49.2,46.4,29.89,WNW,292,3.5,9.6,90,0.04,,,0.28,VWS V13.00,2013-04-20 10:28:00,
2013-04-20 06:34:00,49.2,46.1,29.90,NNE,22,0.8,9.6,89,0.04,,,0.28,VWS V13.00,2013-04-20 10:34:00,
2013-04-20 06:39:00,49.2,46.1,29.89,NW,315,8.5,9.6,89,0.02,,,0.28,VWS V13.00,2013-04-20 10:39:00,
2013-04-20 06:44:00,49.2,46.1,29.90,WNW,292,5.3,5.3,89,0.02,,,0.28,VWS V13.00,2013-04-20 10:44:00,
2013-04-20 06:49:00,49.2,46.1,29.90,West,270,5.1,6.4,89,0.02,,,0.28,VWS V13.00,2013-04-20 10:49:00,
2013-04-20 06:53:00,49.2,46.1,29.90,WNW,292,0.8,7.3,89,0.02,,,0.28,VWS V13.00,2013-04-20 10:53:00,
2013-04-20 06:58:00,49.2,46.1,29.90,WNW,292,0.8,7.3,89,0.02,,,0.28,VWS V13.00,2013-04-20 10:58:00,
2013-04-20 07:04:00,49.4,46.3,29.91,West,270,2.4,7.3,89,0.02,,,0.02,VWS V13.00,2013-04-20 11:04:00,
2013-04-20 07:09:00,49.6,46.5,29.91,West,270,0.0,4.2,89,0.00,,,0.28,VWS V13.00,2013-04-20 11:09:00,
2013-04-20 07:14:00,49.6,46.2,29.91,NNW,338,8.2,8.2,88,0.00,,,0.28,VWS V13.00,2013-04-20 11:14:00,
2013-04-20 07:19:00,49.6,46.2,29.92,West,270,0.0,8.2,88,0.00,,,0.28,VWS V13.00,2013-04-20 11:19:00,
2013-04-20 07:24:00,49.8,46.4,29.93,NNW,338,0.0,5.8,88,0.00,,,0.28,VWS V13.00,2013-04-20 11:24:00,
2013-04-20 07:29:00,49.8,46.4,29.92,WNW,292,1.5,5.8,88,0.00,,,0.28,VWS V13.00,2013-04-20 11:29:00,
2013-04-20 07:34:00,49.8,46.4,29.93,ENE,68,0.0,5.8,88,0.00,,,0.28,VWS V13.00,2013-04-20 11:34:00,
2013-04-20 07:39:00,50.0,46.6,29.93,SSW,202,0.0,5.8,88,0.00,,,0.28,VWS V13.00,2013-04-20 11:39:00,
2013-04-20 07:44:00,50.1,46.7,29.94,SW,225,5.1,5.1,88,0.00,,,0.28,VWS V13.00,2013-04-20 11:44:00,
2013-04-20 07:49:00,50.1,46.7,29.93,WNW,292,0.0,5.1,88,0.00,,,0.28,VWS V13.00,2013-04-20 11:49:00,
2013-04-20 07:54:00,50.5,47.1,29.93,NW,315,2.9,5.1,88,0.00,,,0.28,VWS V13.00,2013-04-20 11:54:00,
2013-04-20 07:59:00,50.7,47.3,29.94,WSW,248,2.4,5.1,88,0.00,,,0.28,VWS V13.00,2013-04-20 11:59:00,
2013-04-20 08:04:00,50.7,47.3,29.94,West,270,4.4,5.3,88,0.00,,,0.28,VWS V13.00,2013-04-20 12:04:00,
2013-04-20 08:09:00,50.9,47.5,29.93,West,270,0.8,6.0,88,0.00,,,0.28,VWS V13.00,2013-04-20 12:09:00,
2013-04-20 08:14:00,51.0,47.6,29.94,WSW,248,3.3,6.0,88,0.00,,,0.28,VWS V13.00,2013-04-20 12:14:00,
2013-04-20 08:19:00,51.4,48.0,29.94,WNW,292,2.0,6.0,88,0.00,,,0.28,VWS V13.00,2013-04-20 12:19:00,
2013-04-20 08:24:00,51.6,47.9,29.94,West,270,0.0,4.2,87,0.00,,,0.28,VWS V13.00,2013-04-20 12:24:00,
2013-04-20 08:29:00,51.6,47.9,29.95,WSW,248,0.0,4.2,87,0.00,,,0.28,VWS V13.00,2013-04-20 12:29:00,
2013-04-20 08:34:00,51.8,48.1,29.95,West,270,0.0,4.2,87,0.00,,,0.28,VWS V13.00,2013-04-20 12:34:00,
2013-04-20 08:39:00,52.1,48.0,29.95,WSW,248,9.1,9.1,86,0.00,,,0.28,VWS V13.00,2013-04-20 12:39:00,
2013-04-20 08:44:00,52.3,48.2,29.96,WNW,292,0.8,0.8,86,0.00,,,0.28,VWS V13.00,2013-04-20 12:44:00,
2013-04-20 08:49:00,52.5,48.4,29.96,West,270,1.5,5.3,86,0.00,,,0.28,VWS V13.00,2013-04-20 12:49:00,
2013-04-20 08:54:00,52.7,48.3,29.96,North,0,3.1,5.3,85,0.00,,,0.28,VWS V13.00,2013-04-20 12:54:00,
2013-04-20 08:59:00,52.8,48.4,29.96,WSW,248,2.6,5.3,85,0.00,,,0.28,VWS V13.00,2013-04-20 12:59:00,
2013-04-20 09:04:00,53.2,48.5,29.96,WNW,292,1.5,6.7,84,0.00,,,0.28,VWS V13.00,2013-04-20 13:04:00,
2013-04-20 09:09:00,53.4,48.7,29.96,West,270,1.5,6.7,84,0.00,,,0.28,VWS V13.00,2013-04-20 13:09:00,
2013-04-20 09:14:00,53.7,48.7,29.96,North,0,7.8,7.8,83,0.00,,,0.28,VWS V13.00,2013-04-20 13:14:00,
2013-04-20 09:19:00,54.1,48.4,29.96,NW,315,4.6,7.8,81,0.00,,,0.28,VWS V13.00,2013-04-20 13:19:00,
2013-04-20 09:24:00,54.5,48.1,29.97,West,270,4.2,4.2,79,0.00,,,0.28,VWS V13.00,2013-04-20 13:24:00,
2013-04-20 09:29:00,54.6,47.9,29.98,West,270,9.6,9.6,78,0.00,,,0.28,VWS V13.00,2013-04-20 13:29:00,
2013-04-20 09:34:00,54.6,46.8,29.98,WNW,292,3.8,9.6,75,0.00,,,0.28,VWS V13.00,2013-04-20 13:34:00,
2013-04-20 09:39:00,54.6,46.1,29.98,West,270,1.3,9.6,73,0.00,,,0.28,VWS V13.00,2013-04-20 13:39:00,
2013-04-20 09:44:00,54.6,45.8,29.99,West,270,9.6,9.6,72,0.00,,,0.28,VWS V13.00,2013-04-20 13:44:00,
2013-04-20 09:49:00,55.0,45.8,29.99,West,270,6.4,9.6,71,0.00,,,0.28,VWS V13.00,2013-04-20 13:49:00,
2013-04-20 09:54:00,55.2,46.0,29.99,West,270,8.7,9.6,71,0.00,,,0.28,VWS V13.00,2013-04-20 13:54:00,
2013-04-20 09:59:00,55.5,45.5,30.00,West,270,14.7,14.7,69,0.00,,,0.28,VWS V13.00,2013-04-20 13:59:00,
2013-04-20 10:04:00,55.4,44.2,30.01,West,270,10.5,14.7,66,0.00,,,0.28,VWS V13.00,2013-04-20 14:04:00,
2013-04-20 10:09:00,55.4,43.0,30.00,WSW,248,16.3,18.3,63,0.02,,,0.30,VWS V13.00,2013-04-20 14:09:00,
2013-04-20 10:14:00,55.7,43.3,30.01,West,270,9.6,18.3,63,0.02,,,0.30,VWS V13.00,2013-04-20 14:14:00,
2013-04-20 10:19:00,56.1,43.3,30.01,West,270,3.3,18.3,62,0.02,,,0.30,VWS V13.00,2013-04-20 14:19:00,
2013-04-20 10:24:00,56.4,42.7,30.01,West,270,10.2,19.4,60,0.02,,,0.30,VWS V13.00,2013-04-20 14:24:00,
2013-04-20 10:29:00,56.4,41.8,30.01,WSW,248,2.9,19.4,58,0.02,,,0.30,VWS V13.00,2013-04-20 14:29:00,
2013-04-20 10:34:00,56.4,41.8,30.01,South,180,6.7,19.4,58,0.02,,,0.30,VWS V13.00,2013-04-20 14:34:00,
2013-04-20 10:39:00,57.0,42.4,30.02,SSE,158,7.1,19.4,58,0.02,,,0.30,VWS V13.00,2013-04-20 14:39:00,
2013-04-20 10:44:00,57.5,41.9,30.02,West,270,8.5,16.1,56,0.02,,,0.30,VWS V13.00,2013-04-20 14:44:00,
2013-04-20 10:49:00,57.3,41.3,30.02,WNW,292,17.0,17.0,55,0.02,,,0.30,VWS V13.00,2013-04-20 14:49:00,
2013-04-20 10:54:00,57.0,41.0,30.02,West,270,3.5,17.0,55,0.02,,,0.30,VWS V13.00,2013-04-20 14:54:00,
2013-04-20 10:59:00,56.8,40.8,30.02,West,270,8.0,17.0,55,0.02,,,0.30,VWS V13.00,2013-04-20 14:59:00,
2013-04-20 11:04:00,57.3,41.3,30.03,SW,225,8.2,8.2,55,0.02,,,0.30,VWS V13.00,2013-04-20 15:04:00,
2013-04-20 11:09:00,57.3,41.3,30.02,SW,225,3.8,8.9,55,0.00,,,0.30,VWS V13.00,2013-04-20 15:09:00,
2013-04-20 11:15:00,57.7,40.7,30.02,SW,225,8.0,8.9,53,0.00,,,0.30,VWS V13.00,2013-04-20 15:15:00,
2013-04-20 11:20:00,57.5,41.5,30.02,West,270,4.4,8.9,55,0.00,,,0.30,VWS V13.00,2013-04-20 15:20:00,
2013-04-20 11:25:00,57.9,41.8,30.02,West,270,5.8,5.8,55,0.00,,,0.30,VWS V13.00,2013-04-20 15:25:00,
2013-04-20 11:30:00,58.6,42.0,30.02,WNW,292,0.0,6.7,54,0.00,,,0.30,VWS V13.00,2013-04-20 15:30:00,
2013-04-20 11:35:00,58.8,40.7,30.02,North,0,7.8,8.9,51,0.00,,,0.30,VWS V13.00,2013-04-20 15:35:00,
2013-04-20 11:40:00,58.8,39.7,30.02,NW,315,3.5,8.9,49,0.00,,,0.30,VWS V13.00,2013-04-20 15:40:00,
2013-04-20 11:45:00,59.1,40.5,30.03,SE,135,4.2,4.2,50,0.00,,,0.30,VWS V13.00,2013-04-20 15:45:00,
2013-04-20 11:50:00,59.5,39.8,30.02,West,270,3.5,8.2,48,0.00,,,0.30,VWS V13.00,2013-04-20 15:50:00,
2013-04-20 11:55:00,59.7,39.5,30.02,WNW,292,5.5,8.2,47,0.00,,,0.30,VWS V13.00,2013-04-20 15:55:00,
2013-04-20 12:00:00,59.5,38.7,30.02,WNW,292,6.7,8.2,46,0.00,,,0.30,VWS V13.00,2013-04-20 16:00:00,
2013-04-20 12:05:00,59.5,39.3,30.02,West,270,7.3,8.0,47,0.00,,,0.30,VWS V13.00,2013-04-20 16:05:00,
2013-04-20 12:10:00,60.0,39.7,30.01,West,270,2.0,15.6,47,0.00,,,0.30,VWS V13.00,2013-04-20 16:10:00,
2013-04-20 12:15:00,60.0,38.6,30.01,WSW,248,20.3,20.3,45,0.00,,,0.30,VWS V13.00,2013-04-20 16:15:00,
2013-04-20 12:20:00,60.0,38.0,30.02,South,180,15.6,20.3,44,0.00,,,0.30,VWS V13.00,2013-04-20 16:20:00,
2013-04-20 12:25:00,60.4,38.4,30.02,WSW,248,18.5,18.5,44,0.00,,,0.30,VWS V13.00,2013-04-20 16:25:00,
2013-04-20 12:30:00,60.4,37.8,30.02,WNW,292,15.6,18.5,43,0.00,,,0.30,VWS V13.00,2013-04-20 16:30:00,
2013-04-20 12:35:00,60.0,38.0,30.02,WNW,292,10.7,18.5,44,0.00,,,0.30,VWS V13.00,2013-04-20 16:35:00,
2013-04-20 12:40:00,60.0,38.0,30.02,WSW,248,10.7,18.5,44,0.00,,,0.30,VWS V13.00,2013-04-20 16:40:00,
2013-04-20 12:45:00,59.9,38.0,30.02,NE,45,3.1,12.7,44,0.00,,,0.30,VWS V13.00,2013-04-20 16:45:00,
2013-04-20 12:50:00,59.5,37.0,30.02,NNW,338,6.0,12.7,43,0.00,,,0.30,VWS V13.00,2013-04-20 16:50:00,
2013-04-20 12:55:00,59.0,36.6,30.02,WSW,248,4.6,12.7,43,0.00,,,0.30,VWS V13.00,2013-04-20 16:55:00,
2013-04-20 13:00:00,58.4,36.0,30.02,West,270,14.3,16.7,43,0.00,,,0.30,VWS V13.00,2013-04-20 17:00:00,
2013-04-20 13:05:00,57.9,36.1,30.02,NNW,338,9.1,14.3,44,0.00,,,0.30,VWS V13.00,2013-04-20 17:05:00,
2013-04-20 13:10:00,57.7,36.0,30.03,South,180,3.5,14.3,44,0.00,,,0.30,VWS V13.00,2013-04-20 17:10:00,
2013-04-20 13:15:00,57.3,36.2,30.03,SW,225,19.6,19.6,45,0.00,,,0.30,VWS V13.00,2013-04-20 17:15:00,
2013-04-20 13:20:00,58.1,35.2,30.02,North,0,3.3,19.6,42,0.00,,,0.30,VWS V13.00,2013-04-20 17:20:00,
2013-04-20 13:25:00,59.3,35.6,30.02,WSW,248,18.3,18.3,41,0.00,,,0.30,VWS V13.00,2013-04-20 17:25:00,
2013-04-20 13:30:00,60.0,35.0,30.02,NW,315,8.5,18.3,39,0.00,,,0.30,VWS V13.00,2013-04-20 17:30:00,
2013-04-20 13:35:00,60.9,36.4,30.02,WSW,248,5.1,18.3,40,0.00,,,0.30,VWS V13.00,2013-04-20 17:35:00,
2013-04-20 13:40:00,61.3,36.2,30.02,West,270,10.5,22.3,39,0.00,,,0.30,VWS V13.00,2013-04-20 17:40:00,
2013-04-20 13:45:00,61.8,36.0,30.03,WNW,292,11.1,15.4,38,0.00,,,0.30,VWS V13.00,2013-04-20 17:45:00,
2013-04-20 13:51:00,61.8,36.0,30.03,WNW,292,2.4,15.4,38,0.00,,,0.30,VWS V13.00,2013-04-20 17:51:00,
2013-04-20 13:56:00,61.5,36.3,30.03,SSE,158,1.3,16.5,39,0.00,,,0.30,VWS V13.00,2013-04-20 17:56:00,
2013-04-20 14:01:00,61.5,36.3,30.03,NW,315,7.3,16.5,39,0.00,,,0.02,VWS V13.00,2013-04-20 18:01:00,
2013-04-20 14:06:00,61.3,35.5,30.03,West,270,7.3,7.3,38,0.00,,,0.30,VWS V13.00,2013-04-20 18:06:00,
2013-04-20 14:11:00,60.9,35.8,30.03,NW,315,0.0,7.3,39,0.00,,,0.30,VWS V13.00,2013-04-20 18:11:00,
2013-04-20 14:16:00,60.9,35.8,30.03,SW,225,13.4,13.4,39,0.00,,,0.30,VWS V13.00,2013-04-20 18:16:00,
2013-04-20 14:21:00,61.3,36.2,30.03,NW,315,4.2,4.2,39,0.00,,,0.30,VWS V13.00,2013-04-20 18:21:00,
2013-04-20 14:26:00,61.8,36.6,30.03,NW,315,5.1,5.1,39,0.00,,,0.30,VWS V13.00,2013-04-20 18:26:00,
2013-04-20 14:31:00,61.7,35.9,30.03,NW,315,0.8,5.1,38,0.00,,,0.30,VWS V13.00,2013-04-20 18:31:00,
2013-04-20 14:36:00,61.8,36.6,30.03,WNW,292,5.1,7.1,39,0.00,,,0.30,VWS V13.00,2013-04-20 18:36:00,
2013-04-20 14:41:00,61.8,36.6,30.03,WSW,248,11.8,11.8,39,0.00,,,0.30,VWS V13.00,2013-04-20 18:41:00,
2013-04-20 14:46:00,61.3,36.2,30.03,WSW,248,4.6,11.8,39,0.00,,,0.30,VWS V13.00,2013-04-20 18:46:00,
2013-04-20 14:51:00,60.9,35.8,30.03,WNW,292,4.0,11.8,39,0.00,,,0.30,VWS V13.00,2013-04-20 18:51:00,
2013-04-20 14:56:00,60.6,36.2,30.03,West,270,9.8,11.8,40,0.00,,,0.30,VWS V13.00,2013-04-20 18:56:00,
2013-04-20 15:01:00,60.6,36.2,30.02,West,270,7.3,11.8,40,0.00,,,0.02,VWS V13.00,2013-04-20 19:01:00,
2013-04-20 15:06:00,60.9,36.4,30.02,SW,225,17.0,17.0,40,0.00,,,0.30,VWS V13.00,2013-04-20 19:06:00,
2013-04-20 15:11:00,60.9,36.4,30.03,West,270,2.0,17.0,40,0.00,,,0.30,VWS V13.00,2013-04-20 19:11:00,
2013-04-20 15:16:00,60.9,35.8,30.03,East,90,0.0,17.0,39,0.00,,,0.30,VWS V13.00,2013-04-20 19:16:00,
2013-04-20 15:21:00,60.9,36.4,30.03,WNW,292,0.0,17.0,40,0.00,,,0.30,VWS V13.00,2013-04-20 19:21:00,
2013-04-20 15:26:00,61.7,36.5,30.03,West,270,1.5,7.8,39,0.00,,,0.30,VWS V13.00,2013-04-20 19:26:00,
2013-04-20 15:31:00,62.2,37.0,30.03,West,270,9.6,9.8,39,0.00,,,0.30,VWS V13.00,2013-04-20 19:31:00,
2013-04-20 15:36:00,62.2,36.3,30.03,NNE,22,4.4,9.8,38,0.00,,,0.30,VWS V13.00,2013-04-20 19:36:00,
2013-04-20 15:41:00,61.8,35.3,30.03,NNW,338,0.0,9.8,37,0.00,,,0.30,VWS V13.00,2013-04-20 19:41:00,
2013-04-20 15:46:00,61.8,36.0,30.03,North,0,0.8,0.8,38,0.00,,,0.30,VWS V13.00,2013-04-20 19:46:00,
2013-04-20 15:51:00,62.7,36.8,30.04,NNW,338,2.4,5.1,38,0.00,,,0.30,VWS V13.00,2013-04-20 19:51:00,
2013-04-20 15:56:00,63.1,36.4,30.04,West,270,6.0,6.0,37,0.00,,,0.30,VWS V13.00,2013-04-20 19:56:00,
2013-04-20 16:01:00,63.1,36.4,30.03,WSW,248,9.3,9.3,37,0.00,,,0.30,VWS V13.00,2013-04-20 20:01:00,
2013-04-20 16:06:00,63.1,36.4,30.03,ENE,68,3.8,9.3,37,0.00,,,0.30,VWS V13.00,2013-04-20 20:06:00,
2013-04-20 16:11:00,63.1,35.0,30.04,WNW,292,3.5,9.3,35,0.00,,,0.30,VWS V13.00,2013-04-20 20:11:00,
2013-04-20 16:16:00,62.7,36.1,30.04,WNW,292,5.5,9.3,37,0.00,,,0.30,VWS V13.00,2013-04-20 20:16:00,
2013-04-20 16:21:00,62.7,34.7,30.04,NE,45,0.0,6.2,35,0.00,,,0.30,VWS V13.00,2013-04-20 20:21:00,
2013-04-20 16:26:00,62.4,35.1,30.05,West,270,11.8,11.8,36,0.00,,,0.30,VWS V13.00,2013-04-20 20:26:00,
2013-04-20 16:31:00,61.8,35.3,30.04,NW,315,6.2,11.8,37,0.00,,,0.30,VWS V13.00,2013-04-20 20:31:00,
2013-04-20 16:36:00,61.7,35.2,30.05,NW,315,3.3,11.8,37,0.00,,,0.30,VWS V13.00,2013-04-20 20:36:00,
2013-04-20 16:41:00,61.5,34.3,30.05,WSW,248,2.2,11.8,36,0.00,,,0.30,VWS V13.00,2013-04-20 20:41:00,
2013-04-20 16:47:00,61.7,35.2,30.05,West,270,2.0,2.2,37,0.00,,,0.30,VWS V13.00,2013-04-20 20:47:00,
2013-04-20 16:52:00,61.8,35.3,30.05,West,270,2.9,2.9,37,0.00,,,0.30,VWS V13.00,2013-04-20 20:52:00,
2013-04-20 16:57:00,61.7,34.5,30.06,West,270,4.6,5.8,36,0.00,,,0.30,VWS V13.00,2013-04-20 20:57:00,
2013-04-20 17:02:00,61.5,34.3,30.06,NW,315,4.4,5.8,36,0.00,,,0.30,VWS V13.00,2013-04-20 21:02:00,
2013-04-20 17:07:00,61.5,34.3,30.06,WNW,292,6.2,9.8,36,0.00,,,0.30,VWS V13.00,2013-04-20 21:07:00,
2013-04-20 17:12:00,61.3,34.1,30.06,West,270,5.3,9.8,36,0.00,,,0.30,VWS V13.00,2013-04-20 21:12:00,
2013-04-20 17:17:00,61.1,34.7,30.06,NNW,338,4.4,9.8,37,0.00,,,0.30,VWS V13.00,2013-04-20 21:17:00,
2013-04-20 17:22:00,61.1,34.7,30.06,West,270,6.0,9.8,37,0.00,,,0.30,VWS V13.00,2013-04-20 21:22:00,
2013-04-20 17:27:00,61.3,34.8,30.06,North,0,2.0,7.3,37,0.00,,,0.30,VWS V13.00,2013-04-20 21:27:00,
2013-04-20 17:32:00,61.1,34.7,30.06,West,270,9.3,9.3,37,0.00,,,0.30,VWS V13.00,2013-04-20 21:32:00,
2013-04-20 17:37:00,61.3,34.8,30.07,West,270,5.8,9.3,37,0.00,,,0.30,VWS V13.00,2013-04-20 21:37:00,
2013-04-20 17:42:00,61.3,34.8,30.07,WSW,248,10.0,10.0,37,0.00,,,0.30,VWS V13.00,2013-04-20 21:42:00,
2013-04-20 17:47:00,60.9,34.5,30.07,NW,315,5.8,10.0,37,0.00,,,0.30,VWS V13.00,2013-04-20 21:47:00,
2013-04-20 17:52:00,60.9,34.5,30.08,WNW,292,8.2,10.0,37,0.00,,,0.30,VWS V13.00,2013-04-20 21:52:00,
2013-04-20 17:57:00,60.8,33.7,30.08,West,270,4.6,10.0,36,0.00,,,0.30,VWS V13.00,2013-04-20 21:57:00,
2013-04-20 18:02:00,60.6,32.8,30.08,SW,225,9.3,10.0,35,0.00,,,0.02,VWS V13.00,2013-04-20 22:02:00,
2013-04-20 18:07:00,60.6,32.8,30.08,SW,225,9.3,10.0,35,0.00,,,0.02,VWS V13.00,2013-04-20 22:07:00,
2013-04-20 18:12:00,60.9,33.1,30.08,West,270,4.2,9.3,35,0.00,,,0.30,VWS V13.00,2013-04-20 22:12:00,
2013-04-20 18:17:00,60.9,33.1,30.09,NNW,338,4.2,12.9,35,0.00,,,0.30,VWS V13.00,2013-04-20 22:17:00,
2013-04-20 18:22:00,61.3,32.7,30.09,NNW,338,13.6,13.6,34,0.00,,,0.30,VWS V13.00,2013-04-20 22:22:00,
2013-04-20 18:27:00,61.3,32.7,30.09,NW,315,5.8,13.6,34,0.00,,,0.30,VWS V13.00,2013-04-20 22:27:00,
2013-04-20 18:32:00,61.3,33.4,30.09,NW,315,6.7,13.6,35,0.00,,,0.30,VWS V13.00,2013-04-20 22:32:00,
2013-04-20 18:38:00,61.3,33.4,30.10,WSW,248,10.5,13.6,35,0.00,,,0.30,VWS V13.00,2013-04-20 22:38:00,
2013-04-20 18:43:00,60.9,33.1,30.10,NNE,22,2.9,13.6,35,0.00,,,0.30,VWS V13.00,2013-04-20 22:43:00,
2013-04-20 18:48:00,60.8,33.0,30.10,West,270,5.1,13.6,35,0.00,,,0.30,VWS V13.00,2013-04-20 22:48:00,
2013-04-20 18:53:00,60.6,33.5,30.10,NNW,338,8.7,13.6,36,0.00,,,0.30,VWS V13.00,2013-04-20 22:53:00,
2013-04-20 18:58:00,60.4,33.3,30.11,NNW,338,1.5,13.6,36,0.00,,,0.30,VWS V13.00,2013-04-20 22:58:00,
2013-04-20 19:00:00,60.4,33.3,30.11,NW,315,4.6,13.6,36,0.00,,,0.30,VWS V13.00,2013-04-20 23:00:00,
2013-04-20 19:03:00,60.4,33.3,30.11,NW,315,4.6,13.6,36,0.00,,,0.02,VWS V13.00,2013-04-20 23:03:00,
2013-04-20 19:08:00,60.4,33.3,30.11,NW,315,4.6,13.6,36,0.00,,,0.30,VWS V13.00,2013-04-20 23:08:00,
2013-04-20 19:13:00,60.0,33.0,30.12,NW,315,4.2,4.6,36,0.00,,,0.30,VWS V13.00,2013-04-20 23:13:00,
2013-04-20 19:18:00,59.9,33.6,30.11,SE,135,0.0,4.6,37,0.00,,,0.30,VWS V13.00,2013-04-20 23:18:00,
2013-04-20 19:23:00,59.7,33.4,30.12,West,270,1.5,4.6,37,0.00,,,0.30,VWS V13.00,2013-04-20 23:23:00,
2013-04-20 19:28:00,59.1,32.9,30.13,NW,315,4.4,7.1,37,0.00,,,0.30,VWS V13.00,2013-04-20 23:28:00,
2013-04-20 19:33:00,58.8,32.6,30.13,NNW,338,5.1,7.1,37,0.00,,,0.30,VWS V13.00,2013-04-20 23:33:00,
2013-04-20 19:38:00,58.1,32.7,30.13,South,180,4.0,7.1,38,0.00,,,0.30,VWS V13.00,2013-04-20 23:38:00,
2013-04-20 19:43:00,57.7,32.3,30.14,NW,315,1.7,7.1,38,0.00,,,0.30,VWS V13.00,2013-04-20 23:43:00,
2013-04-20 19:48:00,57.3,32.6,30.14,NNW,338,2.9,7.1,39,0.00,,,0.30,VWS V13.00,2013-04-20 23:48:00,
2013-04-20 19:53:00,57.0,32.3,30.14,WNW,292,8.5,8.5,39,0.00,,,0.30,VWS V13.00,2013-04-20 23:53:00,
2013-04-20 19:58:00,56.6,32.0,30.14,North,0,0.0,8.5,39,0.00,,,0.30,VWS V13.00,2013-04-20 23:58:00,
2013-04-20 20:03:00,56.4,31.8,30.15,NNW,338,7.3,8.5,39,0.00,,,0.30,VWS V13.00,2013-04-21 00:03:00,
2013-04-20 20:08:00,56.1,31.5,30.16,WSW,248,0.0,10.5,39,0.00,,,0.30,VWS V13.00,2013-04-21 00:08:00,
2013-04-20 20:13:00,55.9,31.3,30.16,NNW,338,6.0,10.5,39,0.00,,,0.30,VWS V13.00,2013-04-21 00:13:00,
2013-04-20 20:18:00,55.7,31.1,30.17,WSW,248,0.0,10.5,39,0.00,,,0.30,VWS V13.00,2013-04-21 00:18:00,
2013-04-20 20:23:00,55.5,31.6,30.16,NNW,338,1.3,4.6,40,0.00,,,0.30,VWS V13.00,2013-04-21 00:23:00,
2013-04-20 20:28:00,55.4,31.5,30.17,SW,225,3.1,4.6,40,0.00,,,0.30,VWS V13.00,2013-04-21 00:28:00,
2013-04-20 20:33:00,55.2,31.3,30.18,SW,225,1.5,4.6,40,0.00,,,0.30,VWS V13.00,2013-04-21 00:33:00,
2013-04-20 20:38:00,55.0,31.8,30.19,NW,315,6.4,6.4,41,0.00,,,0.30,VWS V13.00,2013-04-21 00:38:00,
2013-04-20 20:43:00,55.0,31.8,30.19,NW,315,3.8,8.0,41,0.00,,,0.30,VWS V13.00,2013-04-21 00:43:00,
2013-04-20 20:49:00,54.6,31.4,30.20,NNW,338,5.1,8.0,41,0.00,,,0.30,VWS V13.00,2013-04-21 00:49:00,
2013-04-20 20:54:00,54.6,31.4,30.19,NW,315,2.2,8.0,41,0.00,,,0.30,VWS V13.00,2013-04-21 00:54:00,
2013-04-20 20:59:00,54.5,31.9,30.20,NNW,338,0.0,8.0,42,0.00,,,0.30,VWS V13.00,2013-04-21 00:59:00,
2013-04-20 21:04:00,54.3,31.7,30.20,WSW,248,0.0,0.0,42,0.00,,,0.30,VWS V13.00,2013-04-21 01:04:00,
2013-04-20 21:09:00,54.3,31.7,30.20,NNW,338,3.1,3.1,42,0.00,,,0.30,VWS V13.00,2013-04-21 01:09:00,
2013-04-20 21:14:00,54.3,31.7,30.21,North,0,2.4,3.1,42,0.00,,,0.30,VWS V13.00,2013-04-21 01:14:00,
2013-04-20 21:19:00,54.1,31.5,30.21,WNW,292,0.0,3.1,42,0.00,,,0.30,VWS V13.00,2013-04-21 01:19:00,
2013-04-20 21:24:00,54.1,31.5,30.22,NW,315,0.0,3.1,42,0.00,,,0.30,VWS V13.00,2013-04-21 01:24:00,
2013-04-20 21:29:00,53.9,31.4,30.22,SSW,202,2.4,3.1,42,0.00,,,0.30,VWS V13.00,2013-04-21 01:29:00,
2013-04-20 21:34:00,53.7,31.2,30.23,NW,315,5.1,5.1,42,0.00,,,0.30,VWS V13.00,2013-04-21 01:34:00,
2013-04-20 21:39:00,53.7,31.2,30.24,NW,315,6.4,6.7,42,0.00,,,0.30,VWS V13.00,2013-04-21 01:39:00,
2013-04-20 21:44:00,53.7,31.2,30.23,NW,315,4.2,9.1,42,0.00,,,0.30,VWS V13.00,2013-04-21 01:44:00,
2013-04-20 21:50:00,53.6,31.1,30.24,NW,315,9.3,9.3,42,0.00,,,0.30,VWS V13.00,2013-04-21 01:50:00,
2013-04-20 21:55:00,53.4,31.5,30.24,NNW,338,4.9,9.3,43,0.00,,,0.30,VWS V13.00,2013-04-21 01:55:00,
2013-04-20 22:00:00,53.4,31.5,30.24,NNW,338,7.3,9.3,43,0.00,,,0.30,VWS V13.00,2013-04-21 02:00:00,
2013-04-20 22:05:00,53.4,31.5,30.25,NNW,338,2.6,9.8,43,0.00,,,0.30,VWS V13.00,2013-04-21 02:05:00,
2013-04-20 22:10:00,53.2,31.3,30.25,NE,45,6.2,9.8,43,0.00,,,0.30,VWS V13.00,2013-04-21 02:10:00,
2013-04-20 22:15:00,53.2,31.3,30.25,NW,315,12.9,12.9,43,0.00,,,0.30,VWS V13.00,2013-04-21 02:15:00,
2013-04-20 22:20:00,53.0,31.1,30.26,NW,315,5.8,12.9,43,0.00,,,0.30,VWS V13.00,2013-04-21 02:20:00,
2013-04-20 22:25:00,52.7,31.4,30.26,NNW,338,6.0,12.9,44,0.00,,,0.30,VWS V13.00,2013-04-21 02:25:00,
2013-04-20 22:30:00,52.5,30.7,30.26,NW,315,2.4,12.9,43,0.00,,,0.30,VWS V13.00,2013-04-21 02:30:00,
2013-04-20 22:35:00,52.5,30.7,30.26,North,0,7.6,12.9,43,0.00,,,0.30,VWS V13.00,2013-04-21 02:35:00,
2013-04-20 22:40:00,52.3,30.5,30.26,WNW,292,3.3,12.9,43,0.00,,,0.30,VWS V13.00,2013-04-21 02:40:00,
2013-04-20 22:45:00,52.3,31.0,30.26,WNW,292,8.7,12.9,44,0.00,,,0.30,VWS V13.00,2013-04-21 02:45:00,
2013-04-20 22:50:00,52.1,30.3,30.27,NW,315,3.1,12.9,43,0.00,,,0.30,VWS V13.00,2013-04-21 02:50:00,
2013-04-20 22:55:00,52.1,30.3,30.26,NNW,338,6.2,12.9,43,0.00,,,0.30,VWS V13.00,2013-04-21 02:55:00,
2013-04-20 23:00:00,52.1,30.9,30.26,WNW,292,4.0,12.9,44,0.00,,,0.30,VWS V13.00,2013-04-21 03:00:00,
2013-04-20 23:05:00,51.9,30.7,30.27,North,0,3.3,12.9,44,0.00,,,0.30,VWS V13.00,2013-04-21 03:05:00,
2013-04-20 23:10:00,51.8,30.6,30.27,NNE,22,2.2,12.9,44,0.00,,,0.30,VWS V13.00,2013-04-21 03:10:00,
2013-04-20 23:15:00,51.6,30.4,30.27,NNW,338,7.8,12.9,44,0.00,,,0.30,VWS V13.00,2013-04-21 03:15:00,
2013-04-20 23:21:00,51.6,29.9,30.27,NNW,338,2.9,12.9,43,0.00,,,0.30,VWS V13.00,2013-04-21 03:21:00,
2013-04-20 23:26:00,51.6,29.9,30.27,NW,315,3.5,3.5,43,0.00,,,0.30,VWS V13.00,2013-04-21 03:26:00,
2013-04-20 23:31:00,51.6,29.9,30.28,NW,315,5.8,8.7,43,0.00,,,0.30,VWS V13.00,2013-04-21 03:31:00,
2013-04-20 23:36:00,51.4,29.7,30.28,WNW,292,0.0,8.7,43,0.00,,,0.30,VWS V13.00,2013-04-21 03:36:00,
2013-04-20 23:41:00,51.2,29.5,30.28,NNW,338,9.1,9.1,43,0.00,,,0.30,VWS V13.00,2013-04-21 03:41:00,
2013-04-20 23:46:00,51.0,29.3,30.28,NNW,338,12.9,12.9,43,0.00,,,0.30,VWS V13.00,2013-04-21 03:46:00,
2013-04-20 23:51:00,50.9,29.2,30.28,NNW,338,7.6,12.9,43,0.00,,,0.30,VWS V13.00,2013-04-21 03:51:00,
2013-04-20 23:56:00,50.9,29.2,30.28,NNW,338,6.4,12.9,43,0.00,,,0.30,VWS V13.00,2013-04-21 03:56:00,